Terminal Aerodrome Forecast
Issued by NWS Rapid City, SD

Home | Current Version | Previous Version | Text Only | Print | Product List | Glossary Off
Versions: 1 2 3 4 5 6 7 8 9 10 11 12 13 14

000
FTUS43 KUNR 182300
TAFRAP
TAF
KRAP 182320Z 1900/1924 VRB05KT P6SM SCT150
     FM191000 33008KT P6SM SCT100
     FM192000 01008KT P6SM SKC=

USA.gov is the U.S. government's official web portal to all federal, state and local government web resources and services.